Hovedside
METAR-TAF:

METAR-TAF

Lufthavner :

Stauning lufthavn

Ringkøbing-Skjern, Danmark

breddegrad: 56-00N, lengdegrad: 008-21E, høyde over havet: 5 m

Gjeldene værobservasjon

Denne rapporten ble laget for 55 minutter siden, klokken 16:20 UTC
Vind 7 kt fra Vest, skiftende mellom Sørvest og Nordvest
Temperatur 17°C
Luftfuktighet 68%
Trykk 1020 hPa
Sikt 10 km eller mer

METAR: EKVJ 241620Z AUTO 28007KT 230V310 9999 NCD 17/11 Q1020 TEST

Tid: 19:15 (17:15 UTC)

Varsel

Denne rapporten ble laget for 6 timer og 9 minutter siden, klokken 11:06 UTC
Varsel gyldig fra 24. klokken 12 UTC til 24. klokken 16 UTC
Vind 7 kt fra Vest-nordvest
Sikt 10 km eller mer
ingen skyer under 1500 m og ingen bygeskyer

TAF: EKVJ 241106Z 2412/2416 29007KT CAVOK

Værobservasjoner og værvarsel for over 4000 flyplasser (METAR- og TAF-rapporter).

Tilgjengelige stasjoner er representert av de røde og gule prikkene på kartet.

Hold musepekeren over prikken for å se navnet på stasjonen.

Klikk så for å se værobservasjoner og -varsler.

For å forandre kartet kan du klikke på den grønne knappen med svart kryss for å zoome inn, på den grønne knappen med strek for å zoome ut, eller på de grønne pilene for å se tilstøtende kart.


METAR-TAF: